West Palm Beach, Florida
Current Conditions -  °F | °C
As of 6:53 AM on Saturday 20 Dec 2014 (Local Time) from KPBI Reporting Station
Few Clouds Few Clouds  
Wind Chill: 15°   Ceiling: Unl
Heat Index: 15°   Visibility: 8mi
Dew Point: 14°   Wind: 0mph
Humidity: 96%   Direction: NA
Pressure: 30.07"   Gusts: NA
Location:  26.71°N, 80.05°W
Report Text: KPBI 201153Z 00000KT 8SM FEW040 FEW050 15/14 A3007 RMK AO2 SLP183 T01500144 10217 20150 53013
Loading
Personal Weather Stations






























Interactive Weather Map New forecast layout! Learn more

10-Day Weather Forecast

Advertisements
Track Severe Weather on mobile